Time;durP1;ratioP1;P1;durP2;ratioP2;P2;SDS_P1;SDS_P2;PMS_P1;PMS_P2;Temp;Humidity;BMP_temperature;BMP_pressure;BME280_temperature;BME280_humidity;BME280_pressure;Samples;Min_cycle;Max_cycle;Signal;HPM_P1;HPM_P2
2023/06/02 00:00:38;;;;;;;10.65;4.15;;;;;;;13.38;100.00;95600.28;1030951;28;20073;-73
2023/06/02 00:01:09;;;;;;;5.22;2.80;;;;;;;13.37;100.00;95601.34;1035241;28;20083;-73
2023/06/02 00:01:40;;;;;;;5.05;3.28;;;;;;;13.34;100.00;95597.44;1040398;28;20084;-72
2023/06/02 00:02:10;;;;;;;5.70;3.30;;;;;;;13.29;100.00;95597.50;1035381;28;20411;-72
2023/06/02 00:02:41;;;;;;;3.63;2.88;;;;;;;13.33;100.00;95608.28;1032405;28;20441;-72
2023/06/02 00:03:12;;;;;;;9.52;3.33;;;;;;;13.34;100.00;95602.69;1031448;28;20226;-72
2023/06/02 00:03:43;;;;;;;6.65;3.00;;;;;;;13.33;100.00;95601.16;1026865;28;20658;-73
2023/06/02 00:04:14;;;;;;;7.95;3.75;;;;;;;13.30;100.00;95601.69;1030723;28;20054;-73
2023/06/02 00:04:45;;;;;;;5.72;3.70;;;;;;;13.32;100.00;95604.84;1037447;28;20029;-73
2023/06/02 00:05:16;;;;;;;4.55;3.00;;;;;;;13.31;100.00;95603.28;1038560;28;20029;-72
2023/06/02 00:05:49;;;;;;;7.78;3.38;;;;;;;13.30;100.00;95604.34;1035397;28;20029;-73
2023/06/02 00:06:19;;;;;;;7.00;3.63;;;;;;;13.30;100.00;95600.94;1037443;28;20025;-72
2023/06/02 00:06:50;;;;;;;7.15;3.40;;;;;;;13.31;100.00;95611.19;1039156;28;20053;-73
2023/06/02 00:07:21;;;;;;;5.95;4.03;;;;;;;13.29;100.00;95600.16;1032056;28;20034;-73
2023/06/02 00:07:51;;;;;;;8.80;3.45;;;;;;;13.27;100.00;95604.91;1029033;28;20132;-72
2023/06/02 00:08:22;;;;;;;6.78;3.25;;;;;;;13.28;100.00;95601.22;1031013;28;20022;-73
2023/06/02 00:08:52;;;;;;;4.88;3.28;;;;;;;13.29;100.00;95610.69;1026649;28;20030;-72
2023/06/02 00:09:23;;;;;;;5.35;3.50;;;;;;;13.28;100.00;95609.13;1030840;28;20054;-72
2023/06/02 00:09:55;;;;;;;7.10;3.45;;;;;;;13.27;100.00;95604.91;1034847;28;20525;-73
2023/06/02 00:10:26;;;;;;;8.63;3.35;;;;;;;13.26;100.00;95611.25;1026850;28;20014;-72
2023/06/02 00:10:56;;;;;;;4.90;3.38;;;;;;;13.24;100.00;95612.56;1030620;28;20042;-73
2023/06/02 00:11:27;;;;;;;7.65;3.60;;;;;;;13.25;100.00;95612.31;1030177;28;20170;-72
2023/06/02 00:11:57;;;;;;;8.73;3.33;;;;;;;13.23;100.00;95611.78;1030602;28;20023;-72
2023/06/02 00:12:28;;;;;;;6.22;3.75;;;;;;;13.24;100.00;95615.19;1030850;28;20026;-73
2023/06/02 00:12:58;;;;;;;9.27;3.42;;;;;;;13.22;100.00;95612.84;1030640;28;20038;-72
2023/06/02 00:13:29;;;;;;;9.00;3.53;;;;;;;13.20;100.00;95612.34;1030841;28;20026;-74
2023/06/02 00:13:59;;;;;;;9.30;4.22;;;;;;;13.20;100.00;95612.34;1035160;28;20022;-73
2023/06/02 00:14:30;;;;;;;8.10;4.07;;;;;;;13.20;100.00;95614.97;1035057;28;20033;-73
2023/06/02 00:15:01;;;;;;;12.48;4.38;;;;;;;13.19;100.00;95614.19;1038967;28;20052;-71
2023/06/02 00:15:33;;;;;;;9.23;3.55;;;;;;;13.14;100.00;95602.91;1036209;28;20108;-73
2023/06/02 00:16:03;;;;;;;8.60;3.80;;;;;;;13.20;100.00;95612.34;1030667;28;20026;-73
2023/06/02 00:16:42;;;;;;;6.90;3.80;;;;;;;13.20;100.00;95617.59;1033603;28;20645;-72
2023/06/02 00:17:13;;;;;;;10.32;3.92;;;;;;;13.19;100.00;95611.56;1029770;28;20137;-72
2023/06/02 00:17:43;;;;;;;8.90;4.47;;;;;;;13.18;100.00;95617.13;1029316;28;20027;-73
2023/06/02 00:18:14;;;;;;;9.13;3.83;;;;;;;13.17;100.00;95603.16;1034912;28;20029;-73
2023/06/02 00:18:44;;;;;;;8.80;4.57;;;;;;;13.20;100.00;95609.72;1030694;28;20096;-73
2023/06/02 00:19:18;;;;;;;9.43;4.57;;;;;;;13.19;100.00;95610.78;1034563;28;20022;-72
2023/06/02 00:19:50;;;;;;;14.73;4.50;;;;;;;13.20;100.00;95614.97;1034514;28;20103;-73
2023/06/02 00:20:26;;;;;;;14.20;5.25;;;;;;;13.21;100.00;95608.63;1034800;28;20022;-73
2023/06/02 00:20:56;;;;;;;8.50;3.92;;;;;;;13.18;100.00;95610.00;1034728;28;20034;-73
2023/06/02 00:21:27;;;;;;;15.63;4.18;;;;;;;13.19;100.00;95613.41;1033874;28;20101;-74
2023/06/02 00:21:57;;;;;;;11.30;4.55;;;;;;;13.16;100.00;95606.84;1030742;28;20030;-73
2023/06/02 00:22:29;;;;;;;8.00;4.13;;;;;;;13.17;100.00;95612.91;1030753;28;20452;-74
2023/06/02 00:23:01;;;;;;;9.02;3.70;;;;;;;13.18;100.00;95611.84;1028810;28;20015;-73
2023/06/02 00:23:32;;;;;;;9.88;3.83;;;;;;;13.16;100.00;95606.84;1031237;28;20031;-73
2023/06/02 00:24:03;;;;;;;7.07;3.90;;;;;;;13.16;100.00;95611.34;1034146;28;20454;-73
2023/06/02 00:24:33;;;;;;;6.85;3.53;;;;;;;13.14;100.00;95614.25;1032084;28;20105;-72
2023/06/02 00:25:04;;;;;;;4.60;3.47;;;;;;;13.14;100.00;95608.19;1030967;28;20045;-72
2023/06/02 00:25:41;;;;;;;11.95;4.32;;;;;;;13.08;100.00;95601.44;1028582;28;20019;-72
2023/06/02 00:26:11;;;;;;;8.50;4.55;;;;;;;13.12;100.00;95611.13;1034201;28;20471;-73
2023/06/02 00:26:42;;;;;;;8.07;4.07;;;;;;;13.11;100.00;95608.75;1032576;28;20057;-73
2023/06/02 00:27:12;;;;;;;9.30;4.22;;;;;;;13.07;100.00;95602.47;1034689;28;20022;-74
2023/06/02 00:27:43;;;;;;;5.57;3.53;;;;;;;13.09;100.00;95606.41;1030522;28;20089;-72
2023/06/02 00:28:13;;;;;;;9.38;3.85;;;;;;;13.11;100.00;95608.75;1026586;28;20124;-73
2023/06/02 00:28:44;;;;;;;7.53;4.00;;;;;;;13.08;100.00;95612.75;1030816;28;20507;-73
2023/06/02 00:29:14;;;;;;;8.38;3.88;;;;;;;12.97;100.00;95596.25;1034991;28;20108;-73
2023/06/02 00:29:45;;;;;;;7.47;3.92;;;;;;;13.06;100.00;95612.25;1030340;28;20032;-72
2023/06/02 00:30:15;;;;;;;7.82;3.78;;;;;;;13.05;100.00;95612.53;1030752;28;20667;-73
2023/06/02 00:30:46;;;;;;;9.77;4.15;;;;;;;13.03;100.00;95612.81;1030579;28;20030;-73
2023/06/02 00:31:17;;;;;;;8.32;3.55;;;;;;;13.01;100.00;95608.88;1029994;28;20037;-73
2023/06/02 00:31:48;;;;;;;11.38;4.35;;;;;;;12.94;100.00;95601.31;1034855;28;20033;-73
2023/06/02 00:32:19;;;;;;;7.35;4.10;;;;;;;12.96;100.00;95613.13;1026482;28;20045;-73
2023/06/02 00:32:49;;;;;;;9.05;4.30;;;;;;;12.96;100.00;95607.88;1026789;28;20492;-73
2023/06/02 00:33:20;;;;;;;11.15;3.80;;;;;;;12.96;100.00;95613.13;1030609;28;20672;-73
2023/06/02 00:33:50;;;;;;;5.88;3.78;;;;;;;12.94;100.00;95615.28;1030645;28;20034;-73
2023/06/02 00:34:21;;;;;;;6.65;4.05;;;;;;;12.93;100.00;95611.06;1030462;28;20192;-73
2023/06/02 00:34:51;;;;;;;7.38;4.22;;;;;;;12.93;100.00;95612.91;1022628;28;20130;-73
2023/06/02 00:35:22;;;;;;;12.88;4.10;;;;;;;12.92;100.00;95608.72;1026665;28;20035;-73
2023/06/02 00:35:52;;;;;;;8.70;4.68;;;;;;;12.93;100.00;95612.91;1034843;28;20125;-74
2023/06/02 00:36:23;;;;;;;6.28;3.78;;;;;;;12.89;100.00;95612.69;1034396;28;20156;-73
2023/06/02 00:36:53;;;;;;;9.07;4.00;;;;;;;12.88;100.00;95618.25;1034662;28;20033;-73
2023/06/02 00:37:24;;;;;;;7.40;3.92;;;;;;;12.86;100.00;95613.25;1030631;28;20022;-73
2023/06/02 00:37:55;;;;;;;8.63;4.10;;;;;;;12.86;100.00;95615.88;1026686;28;20027;-73
2023/06/02 00:38:25;;;;;;;6.40;4.30;;;;;;;12.87;100.00;95608.75;1026395;28;20057;-73
2023/06/02 00:38:55;;;;;;;6.68;3.97;;;;;;;12.84;100.00;95620.63;1030664;28;20065;-73
2023/06/02 00:39:26;;;;;;;9.05;4.43;;;;;;;12.83;100.00;95616.44;1034388;28;20084;-73
2023/06/02 00:39:56;;;;;;;9.10;4.05;;;;;;;12.81;100.00;95618.59;1033936;28;20041;-72
2023/06/02 00:40:27;;;;;;;10.07;4.22;;;;;;;12.79;100.00;95612.78;1032078;28;20096;-72
2023/06/02 00:40:57;;;;;;;6.15;3.72;;;;;;;12.81;100.00;95615.13;1034473;28;20112;-72
2023/06/02 00:41:28;;;;;;;6.45;3.97;;;;;;;12.80;100.00;95617.00;1030047;28;20026;-73
2023/06/02 00:41:59;;;;;;;5.32;3.70;;;;;;;12.79;100.00;95618.06;1030466;28;20036;-73
2023/06/02 00:42:30;;;;;;;5.50;3.88;;;;;;;12.76;100.00;95613.34;1034597;28;20022;-74
2023/06/02 00:43:00;;;;;;;7.65;4.30;;;;;;;12.80;100.00;95616.22;1038776;28;20083;-73
2023/06/02 00:43:31;;;;;;;6.85;3.67;;;;;;;12.80;100.00;95618.84;1038181;28;20577;-73
2023/06/02 00:44:01;;;;;;;8.80;3.92;;;;;;;12.80;100.00;95621.47;1030485;28;20695;-74
2023/06/02 00:44:35;;;;;;;5.65;3.30;;;;;;;12.74;100.00;95605.75;1026771;28;20030;-72
2023/06/02 00:45:06;;;;;;;9.77;4.20;;;;;;;12.76;100.00;95618.63;1034833;28;20622;-73
2023/06/02 00:45:36;;;;;;;6.57;3.80;;;;;;;12.74;100.00;95615.47;1039297;28;20037;-73
2023/06/02 00:46:06;;;;;;;4.75;3.65;;;;;;;12.73;100.00;95617.31;1038630;28;20040;-73
2023/06/02 00:46:37;;;;;;;8.73;3.90;;;;;;;12.74;100.00;95615.47;1038388;28;20483;-73
2023/06/02 00:47:09;;;;;;;7.35;3.85;;;;;;;12.69;100.00;95610.25;1034547;28;20034;-73
2023/06/02 00:47:39;;;;;;;6.57;3.53;;;;;;;12.70;100.00;95617.88;1026630;28;20122;-73
2023/06/02 00:48:10;;;;;;;7.07;3.85;;;;;;;12.71;100.00;95623.94;1030693;28;20026;-73
2023/06/02 00:48:40;;;;;;;7.53;4.03;;;;;;;12.67;100.00;95615.00;1022232;29;20022;-73
2023/06/02 00:49:11;;;;;;;13.10;4.15;;;;;;;12.67;100.00;95615.00;1030626;28;20405;-72
2023/06/02 00:49:41;;;;;;;5.40;3.17;;;;;;;12.68;100.00;95616.59;1030680;28;20030;-73
2023/06/02 00:50:12;;;;;;;8.20;3.92;;;;;;;12.70;100.00;95625.78;1034496;28;20033;-73
2023/06/02 00:50:42;;;;;;;7.90;4.10;;;;;;;12.66;100.00;95619.50;1030424;28;20037;-72
2023/06/02 00:51:13;;;;;;;6.57;4.18;;;;;;;12.67;100.00;95618.44;1029795;28;20651;-73
2023/06/02 00:51:45;;;;;;;6.32;3.40;;;;;;;12.66;100.00;95619.50;1022387;28;20051;-72
2023/06/02 00:52:16;;;;;;;10.43;4.18;;;;;;;12.68;100.00;95624.50;1026950;28;20503;-73
2023/06/02 00:52:46;;;;;;;4.47;3.20;;;;;;;12.60;100.00;95620.59;1026202;28;20034;-73
2023/06/02 00:53:17;;;;;;;6.50;3.80;;;;;;;12.59;100.00;95615.63;1026451;28;20054;-72
2023/06/02 00:53:47;;;;;;;4.65;3.63;;;;;;;12.62;100.00;95625.59;1022539;28;20023;-72
2023/06/02 00:54:18;;;;;;;8.65;3.67;;;;;;;12.62;100.00;95628.25;1026316;28;20034;-73
2023/06/02 00:54:48;;;;;;;5.75;4.20;;;;;;;12.61;100.00;95619.56;1026557;28;20023;-73
2023/06/02 00:55:18;;;;;;;6.80;3.83;;;;;;;12.61;100.00;95626.66;1030414;28;20030;-73
2023/06/02 00:55:50;;;;;;;5.22;3.20;;;;;;;12.59;100.00;95620.91;1034449;28;20677;-72
2023/06/02 00:56:23;;;;;;;6.28;3.55;;;;;;;12.60;100.00;95625.09;1023069;28;20027;-72
2023/06/02 00:56:54;;;;;;;9.10;3.92;;;;;;;12.59;100.00;95623.53;1026797;28;20686;-72
2023/06/02 00:57:28;;;;;;;6.15;3.35;;;;;;;12.58;100.00;95620.13;1030390;28;20030;-72
2023/06/02 00:58:03;;;;;;;5.30;3.28;;;;;;;12.59;100.00;95616.41;1027513;28;20062;-72
2023/06/02 00:58:37;;;;;;;5.30;3.58;;;;;;;12.59;100.00;95618.25;1026235;28;20019;-72
2023/06/02 00:59:08;;;;;;;8.18;3.42;;;;;;;12.53;100.00;95614.09;1018603;28;20046;-73
2023/06/02 00:59:39;;;;;;;8.15;3.75;;;;;;;12.56;100.00;95621.44;1023610;28;20046;-73
2023/06/02 01:00:10;;;;;;;9.20;3.90;;;;;;;12.54;100.00;95621.75;1020560;28;20093;-71
2023/06/02 01:00:43;;;;;;;7.43;3.58;;;;;;;12.51;100.00;95617.03;1026698;28;20022;-72
2023/06/02 01:01:18;;;;;;;12.05;3.90;;;;;;;12.52;100.00;95623.06;1025201;28;20140;-73
2023/06/02 01:01:49;;;;;;;8.25;4.03;;;;;;;12.52;100.00;95625.69;1023750;28;20039;-73
2023/06/02 01:02:20;;;;;;;7.05;3.92;;;;;;;12.50;100.00;95625.97;1027612;28;20097;-73
2023/06/02 01:02:50;;;;;;;7.85;3.85;;;;;;;12.50;100.00;95623.34;1031382;28;20482;-72
2023/06/02 01:03:21;;;;;;;7.80;3.78;;;;;;;12.46;100.00;95620.47;1034583;28;20457;-73
2023/06/02 01:03:52;;;;;;;7.68;3.80;;;;;;;12.45;100.00;95618.91;1034408;28;20778;-72
2023/06/02 01:04:22;;;;;;;8.15;3.92;;;;;;;12.44;100.00;95622.63;1034942;28;20026;-73
2023/06/02 01:04:57;;;;;;;8.63;3.78;;;;;;;12.43;100.00;95623.66;1034590;28;20411;-74
2023/06/02 01:05:27;;;;;;;8.95;3.92;;;;;;;12.42;100.00;95624.72;1038423;28;20112;-73
2023/06/02 01:06:00;;;;;;;5.82;4.00;;;;;;;12.37;100.00;95611.59;1034778;28;20033;-72
2023/06/02 01:06:36;;;;;;;4.85;3.60;;;;;;;12.38;100.00;95615.81;1034560;28;20545;-73
2023/06/02 01:07:07;;;;;;;15.10;3.58;;;;;;;12.41;100.00;95619.75;1027429;28;20571;-72
2023/06/02 01:07:39;;;;;;;8.32;3.42;;;;;;;12.36;100.00;95615.31;1019531;29;20027;-72
2023/06/02 01:08:09;;;;;;;9.18;4.07;;;;;;;12.38;100.00;95617.66;1027861;28;20062;-72
2023/06/02 01:08:40;;;;;;;6.90;3.60;;;;;;;12.20;100.00;95596.22;1026873;28;20074;-72
2023/06/02 01:09:10;;;;;;;6.55;4.07;;;;;;;12.34;100.00;95619.25;1026808;28;20040;-73
2023/06/02 01:09:41;;;;;;;6.82;3.80;;;;;;;12.36;100.00;95617.16;1029977;28;20038;-73
2023/06/02 01:10:15;;;;;;;9.52;4.05;;;;;;;12.33;100.00;95621.13;1026651;28;20569;-72
2023/06/02 01:10:45;;;;;;;8.50;4.07;;;;;;;12.27;100.00;95606.41;1026747;28;20057;-72
2023/06/02 01:11:16;;;;;;;8.13;4.63;;;;;;;12.29;100.00;95606.94;1029826;28;20045;-72
2023/06/02 01:11:47;;;;;;;7.43;4.03;;;;;;;12.30;100.00;95610.34;1022267;29;20023;-72
2023/06/02 01:12:17;;;;;;;4.85;3.63;;;;;;;12.33;100.00;95620.34;1026285;28;20077;-72
2023/06/02 01:12:48;;;;;;;8.25;3.40;;;;;;;12.30;100.00;95619.03;1026597;28;20062;-73
2023/06/02 01:13:19;;;;;;;7.20;3.90;;;;;;;12.31;100.00;95619.81;1022391;28;20027;-73
2023/06/02 01:13:49;;;;;;;10.27;3.78;;;;;;;12.29;100.00;95617.47;1022567;28;20034;-73
2023/06/02 01:14:20;;;;;;;4.53;3.30;;;;;;;12.28;100.00;95621.16;1030360;28;20065;-73
2023/06/02 01:14:50;;;;;;;4.78;3.25;;;;;;;12.26;100.00;95618.78;1030746;28;20045;-72
2023/06/02 01:15:21;;;;;;;12.23;3.63;;;;;;;12.27;100.00;95622.22;1032901;28;20065;-73
2023/06/02 01:15:51;;;;;;;6.28;3.45;;;;;;;12.25;100.00;95619.88;1037929;28;20091;-73
2023/06/02 01:16:22;;;;;;;8.27;3.80;;;;;;;12.25;100.00;95624.34;1034416;28;20100;-72
2023/06/02 01:16:52;;;;;;;12.07;4.10;;;;;;;12.25;100.00;95619.09;1030555;28;20034;-72
2023/06/02 01:17:28;;;;;;;6.38;3.80;;;;;;;12.24;100.00;95617.53;1034262;28;20030;-73
2023/06/02 01:17:59;;;;;;;7.57;3.78;;;;;;;12.22;100.00;95612.53;1030208;28;20038;-73
2023/06/02 01:18:31;;;;;;;5.10;3.45;;;;;;;12.21;100.00;95618.06;1030257;28;20420;-73
2023/06/02 01:19:01;;;;;;;5.60;3.88;;;;;;;12.21;100.00;95613.59;1030430;28;20446;-72
2023/06/02 01:19:32;;;;;;;6.90;3.90;;;;;;;12.20;100.00;95611.22;1020653;29;20034;-72
2023/06/02 01:20:08;;;;;;;8.35;3.30;;;;;;;12.18;100.00;95621.25;1018233;29;20053;-72
2023/06/02 01:20:44;;;;;;;5.15;3.65;;;;;;;12.17;100.00;95623.09;1012484;29;20029;-72
2023/06/02 01:21:22;;;;;;;5.65;4.32;;;;;;;12.15;100.00;95619.16;1022506;28;20033;-73
2023/06/02 01:21:59;;;;;;;12.10;3.63;;;;;;;12.15;100.00;95617.31;1028835;28;20058;-72
2023/06/02 01:22:30;;;;;;;4.80;3.35;;;;;;;12.13;100.00;95613.38;1022490;29;20556;-72
2023/06/02 01:23:06;;;;;;;7.55;3.80;;;;;;;12.13;100.00;95616.00;1028625;28;20022;-73
2023/06/02 01:23:36;;;;;;;5.38;3.72;;;;;;;12.11;100.00;95616.31;1026453;28;20034;-73
2023/06/02 01:24:07;;;;;;;6.68;3.78;;;;;;;12.13;100.00;95616.78;1030299;28;20030;-73
2023/06/02 01:24:38;;;;;;;8.00;4.25;;;;;;;12.12;100.00;95619.72;1029346;28;20826;-73
2023/06/02 01:25:22;;;;;;;7.85;4.20;;;;;;;12.07;100.00;95615.25;1026510;28;20026;-73
2023/06/02 01:25:53;;;;;;;8.00;3.95;;;;;;;12.07;100.00;95611.84;1032271;28;20032;-73
2023/06/02 01:26:23;;;;;;;5.65;3.53;;;;;;;12.10;100.00;95616.56;1028451;28;20038;-71
2023/06/02 01:26:54;;;;;;;8.15;3.88;;;;;;;12.10;100.00;95616.56;1028488;28;20502;-73
2023/06/02 01:27:24;;;;;;;4.78;3.55;;;;;;;12.10;100.00;95622.59;1026589;28;20030;-73
2023/06/02 01:27:58;;;;;;;6.40;3.63;;;;;;;12.03;100.00;95611.63;1029354;28;20088;-73
2023/06/02 01:28:29;;;;;;;10.95;6.60;;;;;;;12.11;100.00;95623.41;1022231;29;20027;-73
2023/06/02 01:29:01;;;;;;;5.50;3.47;;;;;;;12.03;100.00;95607.13;1019031;29;20046;-72
2023/06/02 01:29:35;;;;;;;6.93;3.55;;;;;;;12.09;100.00;95621.03;1022305;29;20031;-73
2023/06/02 01:30:07;;;;;;;6.18;3.55;;;;;;;12.05;100.00;95616.63;1023135;28;20027;-73
2023/06/02 01:30:37;;;;;;;5.47;3.50;;;;;;;12.05;100.00;95620.03;1027258;28;20618;-73
2023/06/02 01:31:18;;;;;;;4.95;3.40;;;;;;;11.99;100.00;95608.75;1025696;28;20028;-73
2023/06/02 01:31:49;;;;;;;5.32;3.50;;;;;;;12.01;100.00;95611.91;1028077;28;20039;-72
2023/06/02 01:32:41;;;;;;;12.38;3.95;;;;;;;11.96;100.00;95605.88;1022298;29;20019;-72
2023/06/02 01:33:41;;;;;;;7.60;3.65;;;;;;;11.97;100.00;95610.06;1014567;29;20024;-72
2023/06/02 01:34:19;;;;;;;5.55;3.88;;;;;;;11.80;100.00;95589.38;1031307;28;20719;-74
2023/06/02 01:35:02;;;;;;;8.63;3.92;;;;;;;11.96;100.00;95611.13;1030376;28;20644;-73
2023/06/02 01:35:37;;;;;;;6.25;4.07;;;;;;;11.91;100.00;95609.34;1022357;29;20274;-73
2023/06/02 01:36:07;;;;;;;13.45;4.80;;;;;;;11.92;100.00;95610.13;1022542;29;20703;-73
2023/06/02 01:36:38;;;;;;;9.32;4.03;;;;;;;11.93;100.00;95612.47;1024556;28;20031;-73
2023/06/02 01:37:09;;;;;;;12.27;4.60;;;;;;;11.91;100.00;95611.19;1019248;29;20115;-73
2023/06/02 01:37:47;;;;;;;9.18;3.55;;;;;;;11.89;100.00;95611.44;1018042;29;20581;-73
2023/06/02 01:38:17;;;;;;;12.80;3.92;;;;;;;11.90;100.00;95609.59;1017316;29;20035;-73
2023/06/02 01:38:48;;;;;;;11.32;3.83;;;;;;;11.89;100.00;95611.44;1026296;28;20318;-72
2023/06/02 01:39:19;;;;;;;6.07;4.47;;;;;;;11.87;100.00;95613.59;1030333;28;20077;-73
2023/06/02 01:39:49;;;;;;;12.60;4.22;;;;;;;11.87;100.00;95613.59;1023101;28;20050;-73
2023/06/02 01:40:21;;;;;;;11.55;3.42;;;;;;;11.85;100.00;95610.44;1030208;28;20511;-72
2023/06/02 01:40:53;;;;;;;7.82;3.95;;;;;;;11.84;100.00;95605.41;1026507;28;20031;-73
2023/06/02 01:41:23;;;;;;;5.72;3.00;;;;;;;11.84;100.00;95614.13;1029826;28;20355;-73
2023/06/02 01:41:54;;;;;;;7.47;3.47;;;;;;;11.82;100.00;95607.53;1030367;28;20712;-72
2023/06/02 01:42:24;;;;;;;7.85;3.85;;;;;;;11.84;100.00;95611.50;1026272;28;20035;-72
2023/06/02 01:42:55;;;;;;;12.23;3.80;;;;;;;11.85;100.00;95614.91;1026288;28;20568;-72
2023/06/02 01:43:25;;;;;;;4.55;3.58;;;;;;;11.83;100.00;95615.13;1032695;28;20033;-73
2023/06/02 01:43:56;;;;;;;8.90;3.47;;;;;;;11.81;100.00;95606.75;1026387;28;20420;-73
2023/06/02 01:44:26;;;;;;;6.90;4.60;;;;;;;11.80;100.00;95613.06;1026250;28;20034;-72
2023/06/02 01:44:57;;;;;;;7.00;3.65;;;;;;;11.79;100.00;95616.75;1030157;28;20626;-71
2023/06/02 01:45:28;;;;;;;5.18;3.28;;;;;;;11.73;100.00;95608.09;1022540;29;20112;-71
2023/06/02 01:45:59;;;;;;;4.97;3.47;;;;;;;11.75;100.00;95615.72;1018659;29;20082;-73
2023/06/02 01:46:30;;;;;;;8.52;3.75;;;;;;;11.76;100.00;95609.41;1014786;29;20276;-74
2023/06/02 01:47:00;;;;;;;6.28;3.83;;;;;;;11.75;100.00;95611.25;1018870;29;20804;-73
2023/06/02 01:47:31;;;;;;;5.57;3.60;;;;;;;11.75;100.00;95618.34;1018603;29;20020;-72
2023/06/02 01:48:02;;;;;;;4.28;3.22;;;;;;;11.73;100.00;95612.56;1026597;28;20035;-73
2023/06/02 01:48:33;;;;;;;5.75;3.90;;;;;;;11.72;100.00;95613.63;1036587;28;20106;-72
2023/06/02 01:49:03;;;;;;;10.65;4.35;;;;;;;11.70;100.00;95607.84;1034262;28;20034;-73
2023/06/02 01:49:34;;;;;;;7.10;3.63;;;;;;;11.70;100.00;95611.31;1034297;28;20392;-72
2023/06/02 01:50:05;;;;;;;7.20;4.00;;;;;;;11.68;100.00;95610.00;1030211;28;20034;-73
2023/06/02 01:50:37;;;;;;;5.40;3.38;;;;;;;11.68;100.00;95616.03;1030646;28;20080;-73
2023/06/02 01:51:07;;;;;;;4.68;3.65;;;;;;;11.68;100.00;95615.25;1029841;28;20281;-73
2023/06/02 01:51:38;;;;;;;8.32;3.88;;;;;;;11.70;100.00;95615.75;1025768;28;20034;-73
2023/06/02 01:52:08;;;;;;;8.77;3.60;;;;;;;11.69;100.00;95616.81;1030388;28;20471;-72
2023/06/02 01:52:39;;;;;;;7.80;3.90;;;;;;;11.61;100.00;95607.66;1030330;28;20037;-72
2023/06/02 01:53:09;;;;;;;4.78;3.70;;;;;;;11.55;100.00;95593.75;1026458;28;20800;-72
2023/06/02 01:53:40;;;;;;;6.50;3.70;;;;;;;11.67;100.00;95618.91;1028365;28;20118;-73
2023/06/02 01:54:10;;;;;;;5.70;3.95;;;;;;;11.65;100.00;95621.03;1026254;28;20034;-72
2023/06/02 01:54:43;;;;;;;8.38;3.83;;;;;;;11.66;100.00;95615.50;1026411;28;20031;-71
2023/06/02 01:55:14;;;;;;;7.63;4.57;;;;;;;11.65;100.00;95611.31;1029016;28;20038;-72
2023/06/02 01:55:47;;;;;;;6.20;3.90;;;;;;;11.66;100.00;95612.88;1030586;28;20265;-73
2023/06/02 01:56:17;;;;;;;5.47;3.50;;;;;;;11.67;100.00;95613.66;1030734;28;20022;-72
2023/06/02 01:56:48;;;;;;;9.45;4.18;;;;;;;11.64;100.00;95609.75;1034638;28;20749;-72
2023/06/02 01:57:18;;;;;;;7.55;3.63;;;;;;;11.63;100.00;95608.16;1038372;28;20036;-73
2023/06/02 01:57:49;;;;;;;7.50;3.53;;;;;;;11.58;100.00;95608.22;1038463;28;20029;-72
2023/06/02 01:58:20;;;;;;;5.97;3.65;;;;;;;11.62;100.00;95605.81;1030176;28;20026;-73
2023/06/02 01:58:52;;;;;;;4.22;3.45;;;;;;;11.62;100.00;95611.06;1033512;28;20075;-73
2023/06/02 01:59:23;;;;;;;5.63;3.42;;;;;;;11.61;100.00;95609.50;1030198;28;20088;-73
2023/06/02 01:59:53;;;;;;;9.20;3.80;;;;;;;11.60;100.00;95613.19;1030669;28;20068;-72
2023/06/02 02:00:24;;;;;;;5.40;4.13;;;;;;;11.56;100.00;95613.72;1032111;28;20061;-73
2023/06/02 02:00:54;;;;;;;12.45;3.80;;;;;;;11.55;100.00;95609.53;1034522;28;20064;-72
2023/06/02 02:01:27;;;;;;;5.82;3.55;;;;;;;11.56;100.00;95608.47;1033556;28;20026;-73
2023/06/02 02:01:57;;;;;;;6.32;3.80;;;;;;;11.56;100.00;95613.72;1034660;28;20029;-71
2023/06/02 02:02:28;;;;;;;8.88;4.40;;;;;;;11.56;100.00;95613.72;1038025;28;20759;-72
2023/06/02 02:02:58;;;;;;;4.38;3.40;;;;;;;11.57;100.00;95609.28;1034435;28;20087;-73
2023/06/02 02:03:30;;;;;;;6.38;3.78;;;;;;;11.56;100.00;95613.72;1030170;28;20034;-72
2023/06/02 02:04:00;;;;;;;7.82;3.88;;;;;;;11.56;100.00;95605.84;1026039;28;20018;-72
2023/06/02 02:04:31;;;;;;;8.30;3.65;;;;;;;11.55;100.00;95612.16;1026350;28;20628;-72
2023/06/02 02:05:02;;;;;;;8.15;4.38;;;;;;;11.55;100.00;95606.91;1026588;28;20030;-72
2023/06/02 02:05:33;;;;;;;10.75;3.80;;;;;;;11.55;100.00;95606.91;1028611;28;20038;-72
2023/06/02 02:06:03;;;;;;;6.72;4.35;;;;;;;11.54;100.00;95610.59;1034605;28;20030;-72
2023/06/02 02:06:34;;;;;;;7.00;3.63;;;;;;;11.53;100.00;95606.38;1034258;28;20030;-72
2023/06/02 02:07:05;;;;;;;7.93;4.20;;;;;;;11.52;100.00;95612.69;1034356;28;20042;-73
2023/06/02 02:07:35;;;;;;;6.38;3.92;;;;;;;11.52;100.00;95607.44;1034429;28;20042;-73
2023/06/02 02:08:05;;;;;;;4.10;3.20;;;;;;;11.49;100.00;95607.97;1034299;28;20403;-72
2023/06/02 02:08:36;;;;;;;6.70;3.72;;;;;;;11.49;100.00;95607.97;1034437;28;20439;-73
2023/06/02 02:09:07;;;;;;;7.10;3.80;;;;;;;11.48;100.00;95601.16;1034087;28;20034;-73
2023/06/02 02:09:38;;;;;;;8.13;4.88;;;;;;;11.48;100.00;95603.00;1030321;28;20046;-73
2023/06/02 02:10:10;;;;;;;6.43;3.50;;;;;;;11.47;100.00;95606.69;1034363;28;20018;-73
2023/06/02 02:10:40;;;;;;;6.00;3.95;;;;;;;11.46;100.00;95608.53;1035435;28;20269;-73
2023/06/02 02:11:11;;;;;;;7.53;3.88;;;;;;;11.46;100.00;95608.53;1034227;28;20026;-73
2023/06/02 02:11:41;;;;;;;4.20;3.65;;;;;;;11.38;100.00;95595.97;1038118;28;20036;-73
2023/06/02 02:12:12;;;;;;;8.57;4.00;;;;;;;11.46;100.00;95607.72;1026046;28;20637;-72
2023/06/02 02:12:42;;;;;;;5.68;3.70;;;;;;;11.44;100.00;95610.66;1026312;28;20041;-73
2023/06/02 02:13:13;;;;;;;5.80;4.18;;;;;;;11.44;100.00;95604.59;1026313;28;20046;-71
2023/06/02 02:13:43;;;;;;;7.28;4.05;;;;;;;11.46;100.00;95608.53;1026317;28;20122;-72
2023/06/02 02:14:14;;;;;;;7.32;3.97;;;;;;;11.45;100.00;95606.94;1034020;28;20034;-73
2023/06/02 02:14:44;;;;;;;5.70;3.70;;;;;;;11.45;100.00;95606.94;1034236;28;20562;-73
2023/06/02 02:15:15;;;;;;;6.15;3.85;;;;;;;11.41;100.00;95603.31;1033562;28;20037;-73
2023/06/02 02:15:46;;;;;;;10.90;4.35;;;;;;;11.42;100.00;95602.25;1034244;28;20457;-72
2023/06/02 02:16:16;;;;;;;4.60;3.97;;;;;;;11.41;100.00;95605.94;1034369;28;20589;-73
2023/06/02 02:16:49;;;;;;;6.47;3.83;;;;;;;11.27;100.00;95578.69;1038419;28;20030;-73
2023/06/02 02:17:19;;;;;;;6.93;3.80;;;;;;;11.42;100.00;95606.72;1033769;28;20030;-72
2023/06/02 02:17:50;;;;;;;8.93;4.50;;;;;;;11.37;100.00;95597.03;1027677;28;20277;-73
2023/06/02 02:18:24;;;;;;;5.28;3.70;;;;;;;11.41;100.00;95605.94;1030325;28;20030;-73
2023/06/02 02:18:56;;;;;;;9.68;4.10;;;;;;;11.39;100.00;95610.66;1031179;28;20044;-72
2023/06/02 02:19:31;;;;;;;8.63;4.07;;;;;;;11.37;100.00;95609.34;1035024;28;20276;-73
2023/06/02 02:20:05;;;;;;;6.13;3.80;;;;;;;11.36;100.00;95605.94;1037018;28;20272;-72
2023/06/02 02:20:39;;;;;;;6.28;4.03;;;;;;;11.30;100.00;95599.13;1034308;28;20275;-72
2023/06/02 02:21:10;;;;;;;7.45;3.97;;;;;;;11.35;100.00;95607.00;1029637;28;20929;-71
2023/06/02 02:21:40;;;;;;;8.15;4.22;;;;;;;11.34;100.00;95608.06;1030530;28;20273;-73
2023/06/02 02:22:12;;;;;;;10.65;4.25;;;;;;;11.28;100.00;95596.00;1031007;28;20081;-72
2023/06/02 02:22:42;;;;;;;7.47;3.78;;;;;;;11.32;100.00;95608.31;1029786;28;20089;-72
2023/06/02 02:23:13;;;;;;;7.53;4.10;;;;;;;11.33;100.00;95611.72;1034621;28;20383;-73
2023/06/02 02:23:43;;;;;;;12.70;4.35;;;;;;;11.32;100.00;95608.31;1035465;28;20070;-73
2023/06/02 02:24:16;;;;;;;9.25;3.47;;;;;;;11.32;100.00;95612.78;1034927;28;20744;-72
2023/06/02 02:24:46;;;;;;;9.65;4.22;;;;;;;11.30;100.00;95604.38;1037631;28;20029;-73
2023/06/02 02:25:17;;;;;;;5.00;4.13;;;;;;;11.26;100.00;95608.63;1038768;28;20772;-72
2023/06/02 02:25:47;;;;;;;8.98;4.32;;;;;;;11.30;100.00;95609.63;1026963;28;20038;-72
2023/06/02 02:26:18;;;;;;;5.07;3.80;;;;;;;11.29;100.00;95610.72;1030747;28;20030;-72
2023/06/02 02:26:48;;;;;;;6.25;4.10;;;;;;;11.26;100.00;95603.38;1030732;28;20038;-72